createdAt,value
2018-06-25T00:00:20.011Z,3.10
2018-06-25T00:01:20.245Z,2.50
2018-06-25T00:02:20.468Z,2.80
2018-06-25T00:03:20.699Z,2.80
2018-06-25T00:04:20.932Z,2.80
2018-06-25T00:05:21.165Z,2.90
2018-06-25T00:06:21.389Z,2.60
2018-06-25T00:07:21.625Z,2.90
2018-06-25T00:08:21.839Z,2.40
2018-06-25T00:09:22.067Z,3.00
2018-06-25T00:10:22.295Z,2.60
2018-06-25T00:11:22.526Z,2.50
2018-06-25T00:12:22.751Z,2.80
2018-06-25T00:13:22.979Z,2.50
2018-06-25T00:14:23.207Z,2.80
2018-06-25T00:15:23.428Z,2.60
2018-06-25T00:16:23.656Z,2.70
2018-06-25T00:17:23.879Z,2.90
2018-06-25T00:18:24.108Z,2.70
2018-06-25T00:19:24.337Z,2.60
2018-06-25T00:20:24.573Z,2.90
2018-06-25T00:21:24.792Z,2.80
2018-06-25T00:22:25.019Z,2.80
2018-06-25T00:23:25.250Z,2.50
2018-06-25T00:24:25.495Z,3.00
2018-06-25T00:25:25.709Z,3.10
2018-06-25T00:26:25.937Z,2.60
2018-06-25T00:27:26.172Z,2.50
2018-06-25T00:28:26.387Z,3.00
2018-06-25T00:29:26.613Z,2.90
2018-06-25T00:30:26.849Z,2.50
2018-06-25T00:31:27.079Z,2.30
2018-06-25T00:32:27.308Z,2.70
2018-06-25T00:33:27.534Z,2.80
2018-06-25T00:34:27.758Z,2.70
2018-06-25T00:35:27.990Z,3.00
2018-06-25T00:36:28.220Z,2.70
2018-06-25T00:37:28.448Z,2.90
2018-06-25T00:38:28.693Z,2.80
2018-06-25T00:39:28.904Z,2.70
2018-06-25T00:40:29.140Z,2.90
2018-06-25T00:41:29.358Z,3.30
2018-06-25T00:42:29.587Z,2.90
2018-06-25T00:43:29.815Z,3.00
2018-06-25T00:44:30.054Z,2.90
2018-06-25T00:45:30.272Z,3.10
2018-06-25T00:46:30.496Z,3.50
2018-06-25T00:47:30.721Z,3.20
2018-06-25T00:48:30.951Z,3.20
2018-06-25T00:49:31.182Z,3.30
2018-06-25T00:50:31.407Z,3.30
2018-06-25T00:51:31.634Z,3.20
2018-06-25T00:52:31.863Z,3.30
2018-06-25T00:53:32.083Z,3.20
2018-06-25T00:54:32.309Z,3.50
2018-06-25T00:55:32.538Z,3.30
2018-06-25T00:56:32.764Z,3.20
2018-06-25T00:57:32.992Z,3.20
2018-06-25T00:58:33.235Z,3.10
2018-06-25T00:59:33.443Z,3.50
2018-06-25T01:00:33.663Z,3.30
2018-06-25T01:01:33.913Z,3.10
2018-06-25T01:02:34.142Z,3.50
2018-06-25T01:03:34.379Z,3.40
2018-06-25T01:04:34.596Z,3.10
2018-06-25T01:05:34.819Z,3.10
2018-06-25T01:06:35.045Z,3.40
2018-06-25T01:07:35.273Z,3.40
2018-06-25T01:08:35.502Z,3.10
2018-06-25T01:09:35.730Z,3.20
2018-06-25T01:10:35.976Z,3.00
2018-06-25T01:11:36.193Z,3.00
2018-06-25T01:12:36.410Z,2.70
2018-06-25T01:13:36.644Z,3.20
2018-06-25T01:14:36.874Z,2.90
2018-06-25T01:15:37.109Z,2.80
2018-06-25T01:16:37.328Z,3.00
2018-06-25T01:17:37.560Z,2.60
2018-06-25T01:18:37.787Z,2.70
2018-06-25T01:19:38.015Z,2.50
2018-06-25T01:20:38.244Z,2.70
2018-06-25T01:21:38.478Z,2.40
2018-06-25T01:22:38.700Z,2.50
2018-06-25T01:23:38.927Z,2.70
2018-06-25T01:24:39.155Z,2.60
2018-06-25T01:25:39.383Z,2.70
2018-06-25T01:26:39.614Z,2.40
2018-06-25T01:27:39.838Z,2.60
2018-06-25T01:28:40.070Z,2.80
2018-06-25T01:29:40.287Z,2.30
2018-06-25T01:30:40.507Z,2.30
2018-06-25T01:31:40.736Z,2.50
2018-06-25T01:32:40.975Z,2.40
2018-06-25T01:33:41.192Z,2.50
2018-06-25T01:34:41.421Z,2.40
2018-06-25T01:35:41.651Z,2.50
2018-06-25T01:36:41.871Z,2.30
2018-06-25T01:37:42.101Z,2.50
2018-06-25T01:38:42.335Z,2.50
2018-06-25T01:39:42.556Z,2.40
2018-06-25T01:40:42.788Z,2.00
2018-06-25T01:41:43.017Z,2.70
2018-06-25T01:42:43.242Z,1.90
2018-06-25T01:43:43.472Z,2.10
2018-06-25T01:44:43.690Z,2.10
2018-06-25T01:45:43.923Z,2.50
2018-06-25T01:46:44.146Z,1.80
2018-06-25T01:47:44.384Z,1.90
2018-06-25T01:48:44.603Z,2.30
2018-06-25T01:49:44.827Z,2.10
2018-06-25T01:50:45.056Z,2.40
2018-06-25T01:51:45.289Z,2.00
2018-06-25T01:52:45.515Z,2.20
2018-06-25T01:53:45.743Z,2.10
2018-06-25T01:54:45.971Z,2.00
2018-06-25T01:55:46.196Z,2.10
2018-06-25T01:56:46.428Z,2.00
2018-06-25T01:57:47.320Z,1.80
2018-06-25T01:58:46.918Z,1.90
2018-06-25T01:59:47.162Z,2.10
2018-06-25T02:00:47.373Z,1.80
2018-06-25T02:01:47.602Z,2.30
2018-06-25T02:02:47.832Z,1.70
2018-06-25T02:03:48.061Z,1.70
2018-06-25T02:04:48.290Z,1.70
2018-06-25T02:05:48.517Z,1.90
2018-06-25T02:06:48.746Z,2.00
2018-06-25T02:07:49.819Z,1.60
2018-06-25T02:08:49.167Z,1.60
2018-06-25T02:09:49.395Z,1.60
2018-06-25T02:10:49.624Z,1.80
2018-06-25T02:11:49.852Z,1.80
2018-06-25T02:12:50.078Z,1.90
2018-06-25T02:13:50.311Z,1.90
2018-06-25T02:14:50.537Z,1.80
2018-06-25T02:15:51.334Z,1.90
2018-06-25T02:16:51.044Z,1.90
2018-06-25T02:17:51.275Z,1.80
2018-06-25T02:18:51.496Z,1.60
2018-06-25T02:19:51.725Z,1.60
2018-06-25T02:20:51.952Z,1.80
2018-06-25T02:21:52.180Z,1.50
2018-06-25T02:22:52.408Z,1.70
2018-06-25T02:23:52.636Z,1.60
2018-06-25T02:24:52.865Z,1.70
2018-06-25T02:25:53.087Z,1.80
2018-06-25T02:26:53.317Z,1.60
2018-06-25T02:27:53.549Z,1.40
2018-06-25T02:28:53.777Z,1.30
2018-06-25T02:29:54.014Z,1.50
2018-06-25T02:30:54.230Z,1.60
2018-06-25T02:31:54.457Z,1.50
2018-06-25T02:32:54.738Z,1.50
2018-06-25T02:33:54.904Z,1.30
2018-06-25T02:34:55.134Z,1.70
2018-06-25T02:35:55.363Z,1.20
2018-06-25T02:36:55.591Z,1.30
2018-06-25T02:37:55.821Z,1.10
2018-06-25T02:38:56.043Z,1.20
2018-06-25T02:39:56.275Z,1.20
2018-06-25T02:40:56.496Z,1.30
2018-06-25T02:41:56.728Z,1.50
2018-06-25T02:42:56.957Z,1.40
2018-06-25T02:43:57.188Z,1.50
2018-06-25T02:44:57.414Z,1.40
2018-06-25T02:45:57.651Z,1.30
2018-06-25T02:46:57.879Z,1.20
2018-06-25T02:47:58.108Z,1.20
2018-06-25T02:48:58.336Z,1.20
2018-06-25T02:49:58.565Z,1.30
2018-06-25T02:50:58.808Z,1.50
2018-06-25T02:51:59.012Z,1.30
2018-06-25T02:52:59.239Z,1.50
2018-06-25T02:53:59.479Z,1.50
2018-06-25T02:54:59.695Z,1.50
2018-06-25T02:55:59.927Z,1.40
2018-06-25T02:57:00.154Z,1.50
2018-06-25T02:58:00.383Z,1.20
2018-06-25T02:59:00.610Z,1.40
2018-06-25T03:00:00.841Z,1.40
2018-06-25T03:01:01.068Z,1.60
2018-06-25T03:02:01.302Z,1.20
2018-06-25T03:03:01.526Z,1.50
2018-06-25T03:04:01.756Z,1.40
2018-06-25T03:05:01.991Z,1.40
2018-06-25T03:06:02.221Z,1.50
2018-06-25T03:07:02.440Z,1.40
2018-06-25T03:08:02.667Z,1.60
2018-06-25T03:09:02.902Z,1.40
2018-06-25T03:10:03.838Z,1.50
2018-06-25T03:11:03.317Z,1.30
2018-06-25T03:12:03.538Z,1.40
2018-06-25T03:13:03.767Z,1.40
2018-06-25T03:14:03.989Z,1.60
2018-06-25T03:15:04.835Z,1.40
2018-06-25T03:16:04.436Z,1.50
2018-06-25T03:17:04.694Z,1.50
2018-06-25T03:18:04.888Z,1.70
2018-06-25T03:19:05.114Z,1.60
2018-06-25T03:20:05.343Z,1.50
2018-06-25T03:21:05.572Z,1.40
2018-06-25T03:22:05.804Z,1.60
2018-06-25T03:23:06.031Z,1.70
2018-06-25T03:24:06.259Z,1.90
2018-06-25T03:25:06.484Z,1.60
2018-06-25T03:26:06.713Z,1.70
2018-06-25T03:27:06.941Z,1.90
2018-06-25T03:28:07.172Z,1.50
2018-06-25T03:29:07.444Z,1.90
2018-06-25T03:30:07.625Z,1.40
2018-06-25T03:31:07.851Z,1.40
2018-06-25T03:32:08.090Z,1.70
2018-06-25T03:33:08.309Z,1.60
2018-06-25T03:34:08.537Z,1.60
2018-06-25T03:35:08.762Z,1.60
2018-06-25T03:36:08.991Z,1.30
2018-06-25T03:37:09.220Z,1.50
2018-06-25T03:38:09.451Z,1.70
2018-06-25T03:39:09.682Z,1.50
2018-06-25T03:40:09.912Z,1.50
2018-06-25T03:41:10.140Z,1.60
2018-06-25T03:42:10.369Z,1.50
2018-06-25T03:43:10.633Z,1.80
2018-06-25T03:44:10.827Z,1.60
2018-06-25T03:45:11.049Z,1.80
2018-06-25T03:46:11.280Z,1.70
2018-06-25T03:47:11.508Z,1.60
2018-06-25T03:48:11.815Z,1.60
2018-06-25T03:49:11.964Z,1.60
2018-06-25T03:50:12.192Z,1.70
2018-06-25T03:51:12.422Z,1.50
2018-06-25T03:52:12.652Z,1.50
2018-06-25T03:53:12.979Z,1.70
2018-06-25T03:54:13.121Z,1.80
2018-06-25T03:55:13.345Z,1.70
2018-06-25T03:56:13.572Z,1.50
2018-06-25T03:57:13.802Z,1.60
2018-06-25T03:58:14.030Z,1.70
2018-06-25T03:59:14.264Z,1.70
2018-06-25T04:00:14.491Z,1.80
2018-06-25T04:01:14.715Z,1.80
2018-06-25T04:02:14.945Z,1.70
2018-06-25T04:03:15.170Z,2.10
2018-06-25T04:04:15.398Z,1.70
2018-06-25T04:05:15.629Z,1.80
2018-06-25T04:06:15.858Z,1.60
2018-06-25T04:07:16.087Z,1.70
2018-06-25T04:08:16.312Z,1.60
2018-06-25T04:09:16.546Z,1.90
2018-06-25T04:10:16.780Z,1.60
2018-06-25T04:11:17.004Z,1.60
2018-06-25T04:12:17.237Z,1.90
2018-06-25T04:13:17.462Z,2.10
2018-06-25T04:14:17.693Z,1.90
2018-06-25T04:15:17.926Z,2.60
2018-06-25T04:16:18.158Z,3.20
2018-06-25T04:17:18.381Z,2.70
2018-06-25T04:18:18.613Z,2.50
2018-06-25T04:19:18.838Z,2.80
2018-06-25T04:20:19.072Z,2.40
2018-06-25T04:21:19.295Z,2.00
2018-06-25T04:22:19.528Z,1.90
2018-06-25T04:23:19.758Z,2.00
2018-06-25T04:24:19.992Z,1.60
2018-06-25T04:25:20.212Z,1.70
2018-06-25T04:26:20.446Z,1.60
2018-06-25T04:27:20.672Z,1.60
2018-06-25T04:28:20.902Z,2.00
2018-06-25T04:29:21.135Z,1.40
2018-06-25T04:30:21.362Z,1.70
2018-06-25T04:31:21.592Z,1.60
2018-06-25T04:32:21.821Z,1.80
2018-06-25T04:33:22.049Z,1.60
2018-06-25T04:34:22.277Z,1.90
2018-06-25T04:35:22.502Z,1.60
2018-06-25T04:36:22.729Z,1.50
2018-06-25T04:37:22.967Z,1.50
2018-06-25T04:38:23.192Z,1.30
2018-06-25T04:39:23.421Z,1.30
2018-06-25T04:40:23.745Z,1.40
2018-06-25T04:41:23.880Z,1.30
2018-06-25T04:42:24.105Z,1.20
2018-06-25T04:43:24.335Z,1.10
2018-06-25T04:44:24.565Z,1.30
2018-06-25T04:45:24.790Z,1.10
2018-06-25T04:46:25.017Z,1.10
2018-06-25T04:47:25.247Z,1.00
2018-06-25T04:48:25.478Z,1.10
2018-06-25T04:49:25.701Z,1.30
2018-06-25T04:50:25.974Z,1.20
2018-06-25T04:51:26.164Z,1.40
2018-06-25T04:52:26.387Z,1.20
2018-06-25T04:53:26.620Z,1.00
2018-06-25T04:54:26.844Z,1.20
2018-06-25T04:55:27.075Z,1.20
2018-06-25T04:56:27.301Z,1.20
2018-06-25T04:57:27.534Z,0.90
2018-06-25T04:58:27.764Z,1.10
2018-06-25T04:59:28.008Z,1.30
2018-06-25T05:00:28.225Z,1.10
2018-06-25T05:01:28.454Z,1.00
2018-06-25T05:02:28.683Z,1.10
2018-06-25T05:03:28.913Z,0.90
2018-06-25T05:04:29.146Z,1.20
2018-06-25T05:05:29.373Z,1.00
2018-06-25T05:06:29.601Z,1.10
2018-06-25T05:07:29.833Z,1.20
2018-06-25T05:08:30.066Z,1.10
2018-06-25T05:09:30.297Z,1.20
2018-06-25T05:10:30.526Z,1.30
2018-06-25T05:11:30.755Z,1.00
2018-06-25T05:12:30.984Z,1.10
2018-06-25T05:13:31.212Z,1.10
2018-06-25T05:14:31.443Z,1.00
2018-06-25T05:15:31.674Z,1.20
2018-06-25T05:16:31.900Z,1.10
2018-06-25T05:17:32.127Z,1.10
2018-06-25T05:18:32.352Z,1.00
2018-06-25T05:19:32.578Z,1.00
2018-06-25T05:20:32.806Z,1.00
2018-06-25T05:21:33.034Z,1.20
2018-06-25T05:22:33.266Z,1.00
2018-06-25T05:23:33.504Z,1.00
2018-06-25T05:24:33.723Z,0.80
2018-06-25T05:25:33.952Z,1.00
2018-06-25T05:26:34.182Z,0.90
2018-06-25T05:27:34.410Z,0.90
2018-06-25T05:28:34.643Z,0.90
2018-06-25T05:29:34.871Z,1.00
2018-06-25T05:30:35.102Z,1.00
2018-06-25T05:31:35.328Z,0.70
2018-06-25T05:32:35.558Z,1.00
2018-06-25T05:33:35.787Z,0.80
2018-06-25T05:34:36.016Z,0.90
2018-06-25T05:35:36.244Z,0.90
2018-06-25T05:36:36.475Z,0.80
2018-06-25T05:37:36.703Z,0.80
2018-06-25T05:38:36.933Z,0.90
2018-06-25T05:39:37.213Z,0.80
2018-06-25T05:40:37.390Z,0.70
2018-06-25T05:41:37.624Z,1.00
2018-06-25T05:42:37.850Z,0.80
2018-06-25T05:43:38.080Z,0.70
2018-06-25T05:44:38.305Z,0.80
2018-06-25T05:45:38.536Z,0.80
2018-06-25T05:46:38.764Z,0.90
2018-06-25T05:47:38.993Z,0.80
2018-06-25T05:48:39.223Z,0.70
2018-06-25T05:49:39.459Z,0.60
2018-06-25T05:50:39.679Z,0.70
2018-06-25T05:51:39.908Z,0.50
2018-06-25T05:52:40.143Z,0.70
2018-06-25T05:53:40.367Z,0.40
2018-06-25T05:54:40.594Z,0.50
2018-06-25T05:55:40.823Z,0.60
2018-06-25T05:56:41.051Z,0.60
2018-06-25T05:57:41.280Z,0.70
2018-06-25T05:58:41.510Z,0.60
2018-06-25T05:59:41.738Z,0.60
2018-06-25T06:00:41.969Z,0.50
2018-06-25T06:01:42.195Z,0.80
2018-06-25T06:02:42.422Z,0.50
2018-06-25T06:03:42.649Z,0.50
2018-06-25T06:04:42.880Z,0.50
2018-06-25T06:05:43.109Z,0.50
2018-06-25T06:06:43.335Z,0.50
2018-06-25T06:07:43.561Z,0.70
2018-06-25T06:08:43.793Z,0.40
2018-06-25T06:09:44.019Z,0.50
2018-06-25T06:10:44.248Z,0.40
2018-06-25T06:11:44.480Z,0.50
2018-06-25T06:12:44.711Z,0.60
2018-06-25T06:13:44.939Z,0.60
2018-06-25T06:14:45.180Z,0.50
2018-06-25T06:15:45.401Z,0.50
2018-06-25T06:16:45.630Z,0.70
2018-06-25T06:17:45.860Z,0.50
2018-06-25T06:18:46.093Z,0.70
2018-06-25T06:19:46.320Z,0.60
2018-06-25T06:20:46.551Z,0.60
2018-06-25T06:21:46.785Z,0.70
2018-06-25T06:22:47.011Z,0.60
2018-06-25T06:23:47.245Z,0.60
2018-06-25T06:24:47.478Z,0.50
2018-06-25T06:25:47.708Z,0.40
2018-06-25T06:26:47.941Z,0.60
2018-06-25T06:27:48.172Z,0.50
2018-06-25T06:28:48.394Z,0.50
2018-06-25T06:29:48.631Z,0.30
2018-06-25T06:30:48.856Z,0.50
2018-06-25T06:31:49.097Z,0.60
2018-06-25T06:32:49.320Z,0.70
2018-06-25T06:33:49.538Z,0.60
2018-06-25T06:34:49.769Z,0.60
2018-06-25T06:35:49.999Z,0.60
2018-06-25T06:36:50.230Z,0.70
2018-06-25T06:37:50.458Z,0.70
2018-06-25T06:38:50.689Z,0.40
2018-06-25T06:39:50.930Z,0.50
2018-06-25T06:40:51.153Z,0.50
2018-06-25T06:41:51.383Z,0.60
2018-06-25T06:42:51.617Z,0.60
2018-06-25T06:43:51.851Z,0.40
2018-06-25T06:44:52.085Z,0.60
2018-06-25T06:45:52.315Z,0.50
2018-06-25T06:46:52.551Z,0.60
2018-06-25T06:47:52.781Z,0.40
2018-06-25T06:48:53.014Z,0.60
2018-06-25T06:49:53.244Z,0.70
2018-06-25T06:50:53.474Z,0.70
2018-06-25T06:51:53.707Z,0.50
2018-06-25T06:52:53.937Z,0.40
2018-06-25T06:53:54.166Z,0.40
2018-06-25T06:54:54.399Z,0.70
2018-06-25T06:55:54.628Z,0.60
2018-06-25T06:56:54.855Z,0.60
2018-06-25T06:57:55.094Z,0.50
2018-06-25T06:58:55.325Z,0.40
2018-06-25T06:59:55.557Z,0.40
2018-06-25T07:00:55.790Z,0.50
2018-06-25T07:01:56.025Z,0.70
2018-06-25T07:02:56.254Z,0.60
2018-06-25T07:03:56.495Z,0.40
2018-06-25T07:04:56.717Z,0.40
2018-06-25T07:05:56.946Z,0.50
2018-06-25T07:06:57.245Z,0.50
2018-06-25T07:07:57.405Z,0.50
2018-06-25T07:08:57.649Z,0.50
2018-06-25T07:09:57.867Z,0.40
2018-06-25T07:10:58.099Z,0.60
2018-06-25T07:11:58.335Z,0.60
2018-06-25T07:12:58.563Z,0.70
2018-06-25T07:13:58.792Z,0.60
2018-06-25T07:14:59.026Z,0.50
2018-06-25T07:15:59.256Z,0.70
2018-06-25T07:16:59.490Z,0.60
2018-06-25T07:17:59.718Z,0.60
2018-06-25T07:18:59.948Z,0.50
2018-06-25T07:20:00.178Z,0.70
2018-06-25T07:21:00.408Z,0.70
2018-06-25T07:22:00.642Z,0.80
2018-06-25T07:23:00.878Z,0.70
2018-06-25T07:24:01.103Z,0.50
2018-06-25T07:25:01.337Z,0.40
2018-06-25T07:26:01.567Z,0.60
2018-06-25T07:27:01.800Z,0.50
2018-06-25T07:28:02.038Z,0.50
2018-06-25T07:29:02.266Z,0.50
2018-06-25T07:30:02.531Z,0.50
2018-06-25T07:31:02.729Z,0.60
2018-06-25T07:32:02.967Z,0.40
2018-06-25T07:33:03.182Z,0.80
2018-06-25T07:34:03.414Z,0.60
2018-06-25T07:35:03.648Z,0.70
2018-06-25T07:36:03.879Z,0.40
2018-06-25T07:37:04.108Z,0.70
2018-06-25T07:38:04.338Z,0.70
2018-06-25T07:39:04.574Z,0.80
2018-06-25T07:40:04.812Z,1.10
2018-06-25T07:41:05.024Z,1.20
2018-06-25T07:42:05.265Z,0.70
2018-06-25T07:43:05.486Z,0.70
2018-06-25T07:44:05.717Z,0.70
2018-06-25T07:45:05.947Z,0.80
2018-06-25T07:46:06.178Z,1.10
2018-06-25T07:47:06.435Z,0.90
2018-06-25T07:48:06.640Z,0.70
2018-06-25T07:49:06.872Z,0.70
2018-06-25T07:50:07.101Z,0.90
2018-06-25T07:51:07.323Z,0.70
2018-06-25T07:52:07.573Z,1.00
2018-06-25T07:53:07.802Z,0.90
2018-06-25T07:54:08.033Z,1.10
2018-06-25T07:55:08.267Z,1.00
2018-06-25T07:56:08.496Z,1.10
2018-06-25T07:57:08.730Z,0.70
2018-06-25T07:58:08.955Z,1.00
2018-06-25T07:59:09.186Z,0.90
2018-06-25T08:00:09.420Z,0.80
2018-06-25T08:01:09.651Z,0.90
2018-06-25T08:02:09.884Z,0.70
2018-06-25T08:03:10.114Z,1.10
2018-06-25T08:04:10.347Z,1.00
2018-06-25T08:05:10.580Z,1.10
2018-06-25T08:06:10.804Z,0.90
2018-06-25T08:07:11.036Z,0.90
2018-06-25T08:08:11.260Z,0.80
2018-06-25T08:09:11.497Z,0.50
2018-06-25T08:10:11.793Z,0.70
2018-06-25T08:11:11.970Z,0.90
2018-06-25T08:12:12.199Z,1.20
2018-06-25T08:13:12.430Z,0.80
2018-06-25T08:14:12.665Z,0.70
2018-06-25T08:15:12.897Z,0.80
2018-06-25T08:16:13.168Z,1.00
2018-06-25T08:17:13.362Z,0.90
2018-06-25T08:18:13.591Z,0.70
2018-06-25T08:19:13.823Z,1.10
2018-06-25T08:20:14.060Z,0.70
2018-06-25T08:21:14.284Z,0.70
2018-06-25T08:22:14.513Z,0.80
2018-06-25T08:23:14.745Z,1.10
2018-06-25T08:24:14.976Z,0.70
2018-06-25T08:25:15.209Z,3.00
2018-06-25T08:26:15.434Z,1.00
2018-06-25T08:27:15.661Z,1.30
2018-06-25T08:28:15.898Z,3.00
2018-06-25T08:29:16.120Z,1.30
2018-06-25T08:30:16.420Z,8.20
2018-06-25T08:31:16.583Z,1.70
2018-06-25T08:32:16.815Z,3.40
2018-06-25T08:33:17.047Z,2.00
2018-06-25T08:34:17.335Z,1.70
2018-06-25T08:35:17.515Z,0.80
2018-06-25T08:36:17.746Z,0.80
2018-06-25T08:37:17.976Z,1.90
2018-06-25T08:38:18.210Z,1.10
2018-06-25T08:39:18.445Z,0.90
2018-06-25T08:40:18.709Z,0.80
2018-06-25T08:41:18.903Z,1.00
2018-06-25T08:42:19.133Z,1.30
2018-06-25T08:43:19.367Z,2.70
2018-06-25T08:44:19.597Z,1.20
2018-06-25T08:45:19.830Z,1.00
2018-06-25T08:46:20.058Z,1.20
2018-06-25T08:47:20.290Z,0.90
2018-06-25T08:48:20.526Z,1.20
2018-06-25T08:49:20.762Z,1.10
2018-06-25T08:50:20.986Z,1.60
2018-06-25T08:51:21.218Z,1.30
2018-06-25T08:52:21.457Z,1.20
2018-06-25T08:53:21.691Z,1.00
2018-06-25T08:54:21.927Z,1.20
2018-06-25T08:55:22.161Z,1.00
2018-06-25T08:56:22.390Z,1.60
2018-06-25T08:57:22.625Z,1.60
2018-06-25T08:58:22.853Z,1.60
2018-06-25T08:59:23.085Z,1.50
2018-06-25T09:00:23.323Z,1.20
2018-06-25T09:01:23.550Z,0.80
2018-06-25T09:02:23.781Z,0.90
2018-06-25T09:03:24.012Z,0.70
2018-06-25T09:04:24.299Z,1.00
2018-06-25T09:05:24.468Z,1.20
2018-06-25T09:06:24.701Z,1.20
2018-06-25T09:07:24.936Z,1.20
2018-06-25T09:08:25.167Z,1.50
2018-06-25T09:09:25.401Z,1.10
2018-06-25T09:10:25.643Z,1.00
2018-06-25T09:11:25.869Z,1.00
2018-06-25T09:12:26.098Z,0.90
2018-06-25T09:13:26.334Z,1.20
2018-06-25T09:14:26.562Z,1.30
2018-06-25T09:15:26.911Z,1.30
2018-06-25T09:16:27.029Z,1.20
2018-06-25T09:17:27.264Z,1.30
2018-06-25T09:18:27.494Z,1.20
2018-06-25T09:19:27.725Z,1.10
2018-06-25T09:20:27.962Z,1.20
2018-06-25T09:21:28.195Z,1.00
2018-06-25T09:22:28.426Z,1.00
2018-06-25T09:23:28.659Z,0.90
2018-06-25T09:24:28.892Z,1.20
2018-06-25T09:25:29.121Z,1.10
2018-06-25T09:26:29.357Z,1.20
2018-06-25T09:27:29.590Z,1.30
2018-06-25T09:28:29.823Z,2.00
2018-06-25T09:29:30.062Z,1.70
2018-06-25T09:30:30.288Z,2.10
2018-06-25T09:31:30.525Z,1.50
2018-06-25T09:32:30.760Z,1.80
2018-06-25T09:33:30.994Z,1.70
2018-06-25T09:34:31.222Z,1.60
2018-06-25T09:35:31.452Z,1.20
2018-06-25T09:36:31.685Z,1.30
2018-06-25T09:37:31.919Z,1.20
2018-06-25T09:38:32.149Z,1.30
2018-06-25T09:39:32.383Z,0.80
2018-06-25T09:40:32.615Z,1.10
2018-06-25T09:41:33.046Z,0.90
2018-06-25T09:42:33.089Z,0.70
2018-06-25T09:43:33.325Z,1.10
2018-06-25T09:44:33.554Z,0.90
2018-06-25T09:45:33.790Z,1.10
2018-06-25T09:46:34.021Z,1.10
2018-06-25T09:47:34.256Z,1.30
2018-06-25T09:48:34.488Z,0.90
2018-06-25T09:49:34.721Z,0.90
2018-06-25T09:50:34.956Z,0.90
2018-06-25T09:51:35.182Z,1.10
2018-06-25T09:52:35.416Z,1.20
2018-06-25T09:53:35.648Z,1.00
2018-06-25T09:54:35.868Z,1.50
2018-06-25T09:55:36.103Z,1.10
2018-06-25T09:56:36.339Z,1.40
2018-06-25T09:57:36.571Z,1.50
2018-06-25T09:58:36.805Z,1.20
2018-06-25T09:59:37.035Z,1.50
2018-06-25T10:00:37.267Z,1.70
2018-06-25T10:01:37.506Z,1.60
2018-06-25T10:02:37.737Z,1.60
2018-06-25T10:03:37.971Z,1.10
2018-06-25T10:04:38.200Z,1.30
2018-06-25T10:05:38.431Z,1.00
2018-06-25T10:06:38.664Z,1.20
2018-06-25T10:07:38.896Z,1.00
2018-06-25T10:08:39.132Z,1.00
2018-06-25T10:09:39.366Z,1.10
2018-06-25T10:10:39.670Z,0.90
2018-06-25T10:11:39.834Z,1.10
2018-06-25T10:12:40.072Z,1.00
2018-06-25T10:13:40.300Z,1.20
2018-06-25T10:14:40.531Z,1.00
2018-06-25T10:15:40.766Z,1.20
2018-06-25T10:16:40.997Z,1.00
2018-06-25T10:17:43.934Z,1.50
2018-06-25T10:18:41.411Z,1.10
2018-06-25T10:19:41.656Z,1.00
2018-06-25T10:20:41.923Z,1.20
2018-06-25T10:21:42.136Z,1.10
2018-06-25T10:22:42.372Z,1.10
2018-06-25T10:23:42.603Z,1.00
2018-06-25T10:24:42.831Z,1.20
2018-06-25T10:25:43.076Z,1.00
2018-06-25T10:26:43.302Z,1.00
2018-06-25T10:27:43.547Z,1.00
2018-06-25T10:28:43.772Z,0.90
2018-06-25T10:29:44.005Z,1.20
2018-06-25T10:30:44.241Z,1.20
2018-06-25T10:31:44.474Z,1.00
2018-06-25T10:32:44.708Z,1.10
2018-06-25T10:33:44.936Z,1.60
2018-06-25T10:34:45.186Z,1.30
2018-06-25T10:35:45.411Z,1.40
2018-06-25T10:36:45.654Z,1.20
2018-06-25T10:37:45.877Z,1.10
2018-06-25T10:38:46.113Z,1.10
2018-06-25T10:39:46.349Z,0.90
2018-06-25T10:40:46.580Z,1.20
2018-06-25T10:41:46.812Z,1.00
2018-06-25T10:42:47.046Z,1.10
2018-06-25T10:43:47.263Z,0.90
2018-06-25T10:44:47.499Z,0.60
2018-06-25T10:45:47.730Z,0.80
2018-06-25T10:46:47.978Z,0.90
2018-06-25T10:47:48.190Z,1.00
2018-06-25T10:48:48.423Z,1.00
2018-06-25T10:49:48.650Z,1.00
2018-06-25T10:50:48.883Z,1.00
2018-06-25T10:51:49.116Z,0.90
2018-06-25T10:52:49.352Z,1.00
2018-06-25T10:53:58.281Z,0.90
2018-06-25T10:54:49.825Z,1.00
2018-06-25T10:55:50.057Z,0.80
2018-06-25T10:56:50.296Z,0.90
2018-06-25T10:57:50.549Z,0.90
2018-06-25T10:58:58.494Z,0.80
2018-06-25T10:59:58.874Z,1.00
2018-06-25T11:00:51.265Z,0.90
2018-06-25T11:01:51.504Z,0.90
2018-06-25T11:02:59.412Z,1.20
2018-06-25T11:03:51.979Z,1.60
2018-06-25T11:04:52.211Z,1.80
2018-06-25T11:05:52.483Z,1.40
2018-06-25T11:06:52.683Z,1.10
2018-06-25T11:07:52.918Z,1.00
2018-06-25T11:08:53.148Z,0.90
2018-06-25T11:09:53.393Z,0.80
2018-06-25T11:10:53.626Z,1.00
2018-06-25T11:11:53.861Z,1.50
2018-06-25T11:12:54.146Z,3.00
2018-06-25T11:13:54.329Z,1.70
2018-06-25T11:14:54.563Z,2.10
2018-06-25T11:15:54.800Z,1.70
2018-06-25T11:16:55.038Z,1.40
2018-06-25T11:17:55.272Z,1.00
2018-06-25T11:19:03.149Z,0.80
2018-06-25T11:19:55.739Z,0.60
2018-06-25T11:20:55.976Z,1.00
2018-06-25T11:21:56.210Z,1.10
2018-06-25T11:22:56.444Z,0.80
2018-06-25T11:23:56.677Z,0.70
2018-06-25T11:24:56.917Z,0.80
2018-06-25T11:25:57.145Z,1.10
2018-06-25T11:26:57.450Z,1.00
2018-06-25T11:27:57.612Z,1.20
2018-06-25T11:28:57.847Z,0.90
2018-06-25T11:30:05.742Z,0.70
2018-06-25T11:31:05.978Z,0.80
2018-06-25T11:31:58.567Z,1.20
2018-06-25T11:32:58.800Z,0.80
2018-06-25T11:33:59.033Z,0.80
2018-06-25T11:34:59.267Z,1.40
2018-06-25T11:36:07.159Z,0.80
2018-06-25T11:36:59.743Z,1.00
2018-06-25T11:37:59.979Z,1.10
2018-06-25T11:39:00.215Z,0.90
2018-06-25T11:40:00.446Z,1.10
2018-06-25T11:41:00.697Z,0.90
2018-06-25T11:42:08.570Z,1.00
2018-06-25T11:43:01.168Z,0.90
2018-06-25T11:44:01.402Z,0.80
2018-06-25T11:45:09.293Z,1.00
2018-06-25T11:46:01.887Z,0.90
2018-06-25T11:47:02.125Z,0.60
2018-06-25T11:48:02.358Z,0.70
2018-06-25T11:49:02.591Z,0.80
2018-06-25T11:50:02.821Z,0.60
2018-06-25T11:51:03.066Z,0.90
2018-06-25T11:52:03.296Z,0.80
2018-06-25T11:53:03.530Z,0.70
2018-06-25T11:54:03.761Z,0.60
2018-06-25T11:55:03.997Z,0.90
2018-06-25T11:56:04.230Z,0.80
2018-06-25T11:57:04.465Z,0.80
2018-06-25T11:58:06.630Z,0.90
2018-06-25T11:59:04.979Z,0.60
2018-06-25T12:00:05.268Z,0.50
2018-06-25T12:01:05.446Z,0.70
2018-06-25T12:02:05.695Z,0.70
2018-06-25T12:03:06.094Z,0.70
2018-06-25T12:04:06.154Z,0.90
2018-06-25T12:05:06.388Z,0.80
2018-06-25T12:06:06.620Z,0.70
2018-06-25T12:07:06.851Z,0.50
2018-06-25T12:08:07.090Z,0.80
2018-06-25T12:09:07.320Z,0.80
2018-06-25T12:10:07.552Z,0.80
2018-06-25T12:11:07.787Z,1.00
2018-06-25T12:12:08.041Z,0.70
2018-06-25T12:13:08.261Z,1.00
2018-06-25T12:14:08.549Z,0.70
2018-06-25T12:15:08.732Z,0.80
2018-06-25T12:16:08.964Z,0.80
2018-06-25T12:17:09.208Z,0.90
2018-06-25T12:18:09.435Z,0.80
2018-06-25T12:19:09.741Z,0.90
2018-06-25T12:20:09.970Z,0.70
2018-06-25T12:21:10.141Z,0.80
2018-06-25T12:22:10.393Z,1.10
2018-06-25T12:23:10.719Z,0.80
2018-06-25T12:24:10.854Z,0.80
2018-06-25T12:25:11.084Z,0.60
2018-06-25T12:26:11.320Z,0.80
2018-06-25T12:27:11.555Z,0.80
2018-06-25T12:28:11.797Z,1.90
2018-06-25T12:29:12.024Z,3.00
2018-06-25T12:30:12.283Z,2.70
2018-06-25T12:31:20.144Z,1.60
2018-06-25T12:32:12.784Z,1.00
2018-06-25T12:33:12.973Z,1.30
2018-06-25T12:34:13.206Z,0.90
2018-06-25T12:35:13.445Z,0.60
2018-06-25T12:36:13.673Z,0.80
2018-06-25T12:37:13.909Z,0.50
2018-06-25T12:38:14.140Z,0.60
2018-06-25T12:39:14.376Z,0.80
2018-06-25T12:40:14.609Z,0.70
2018-06-25T12:41:14.846Z,0.60
2018-06-25T12:42:15.078Z,0.80
2018-06-25T12:43:15.376Z,0.70
2018-06-25T12:44:15.550Z,0.60
2018-06-25T12:45:15.779Z,0.40
2018-06-25T12:46:16.017Z,0.50
2018-06-25T12:47:16.251Z,0.60
2018-06-25T12:48:16.535Z,0.70
2018-06-25T12:49:16.722Z,0.50
2018-06-25T12:50:16.956Z,0.50
2018-06-25T12:51:17.193Z,0.60
2018-06-25T12:52:17.425Z,0.60
2018-06-25T12:53:17.659Z,0.70
2018-06-25T12:54:17.897Z,0.70
2018-06-25T12:55:18.135Z,0.70
2018-06-25T12:56:18.369Z,0.70
2018-06-25T12:57:18.605Z,0.60
2018-06-25T12:58:18.840Z,0.80
2018-06-25T12:59:19.072Z,0.80
2018-06-25T13:00:19.308Z,0.60
2018-06-25T13:01:19.551Z,0.90
2018-06-25T13:02:19.776Z,1.00
2018-06-25T13:03:20.018Z,0.90
2018-06-25T13:04:20.246Z,0.70
2018-06-25T13:05:20.487Z,0.80
2018-06-25T13:06:20.724Z,0.90
2018-06-25T13:07:20.957Z,0.80
2018-06-25T13:08:21.196Z,0.80
2018-06-25T13:09:30.076Z,0.80
2018-06-25T13:10:21.677Z,1.00
2018-06-25T13:11:21.927Z,0.70
2018-06-25T13:12:22.164Z,0.70
2018-06-25T13:13:22.397Z,0.70
2018-06-25T13:14:22.632Z,0.80
2018-06-25T13:15:22.868Z,1.20
2018-06-25T13:16:23.104Z,1.00
2018-06-25T13:17:23.341Z,1.00
2018-06-25T13:18:23.587Z,0.60
2018-06-25T13:19:23.808Z,0.80
2018-06-25T13:20:24.045Z,0.90
2018-06-25T13:21:24.278Z,0.90